Time;durP1;ratioP1;P1;durP2;ratioP2;P2;SDS_P1;SDS_P2;PMS_P1;PMS_P2;Temp;Humidity;BMP_temperature;BMP_pressure;BME280_temperature;BME280_humidity;BME280_pressure;Samples;Min_cycle;Max_cycle;Signal;HPM_P1;HPM_P2
2022/04/05 00:02:24;;;;;;;32.95;4.30;;;7.20;99.90;;;;;;6275624;22;20016;-78
2022/04/05 00:04:50;;;;;;;24.70;4.75;;;7.20;99.90;;;;;;6274003;22;20020;-76
2022/04/05 00:07:17;;;;;;;36.05;5.60;;;7.20;99.90;;;;;;6273920;22;20023;-76
2022/04/05 00:09:46;;;;;;;31.50;4.95;;;7.20;99.90;;;;;;6274289;22;20024;-78
2022/04/05 00:12:21;;;;;;;28.88;5.60;;;7.20;99.90;;;;;;6274248;22;20051;-77
2022/04/05 00:14:52;;;;;;;32.63;6.20;;;7.20;99.90;;;;;;6275064;22;20026;-77
2022/04/05 00:17:18;;;;;;;25.88;7.15;;;7.20;99.90;;;;;;6248421;22;20027;-77
2022/04/05 00:19:45;;;;;;;31.38;4.55;;;7.20;99.90;;;;;;6273522;22;20027;-76
2022/04/05 00:22:14;;;;;;;25.75;4.28;;;7.20;99.90;;;;;;6248218;22;20023;-77
2022/04/05 00:24:50;;;;;;;37.88;4.85;;;7.20;99.90;;;;;;6274371;22;20039;-77
2022/04/05 00:27:21;;;;;;;26.92;4.50;;;7.20;99.90;;;;;;6250751;22;20015;-78
2022/04/05 00:29:47;;;;;;;16.88;2.60;;;7.20;99.90;;;;;;6275733;22;20459;-76
2022/04/05 00:32:14;;;;;;;19.25;3.35;;;7.10;99.90;;;;;;6274517;22;20081;-76
2022/04/05 00:34:41;;;;;;;17.02;3.08;;;7.10;99.90;;;;;;6273409;22;20101;-75
2022/04/05 00:37:07;;;;;;;17.75;3.47;;;7.00;99.90;;;;;;6273461;22;20036;-76
2022/04/05 00:39:35;;;;;;;20.10;4.32;;;7.00;99.90;;;;;;6273182;22;20089;-76
2022/04/05 00:42:00;;;;;;;13.98;2.47;;;6.90;99.90;;;;;;6272711;22;20020;-77
2022/04/05 00:44:33;;;;;;;19.73;2.10;;;6.90;99.90;;;;;;6273304;22;20080;-77
2022/04/05 00:47:12;;;;;;;19.20;2.97;;;6.90;99.90;;;;;;6272939;22;20024;-77
2022/04/05 00:49:43;;;;;;;14.88;2.75;;;6.80;99.90;;;;;;6273352;22;20058;-77
2022/04/05 00:52:10;;;;;;;19.73;3.75;;;6.80;99.90;;;;;;6247755;22;20046;-76
2022/04/05 00:54:37;;;;;;;13.43;2.63;;;6.80;99.90;;;;;;6273926;22;20020;-77
2022/04/05 00:57:08;;;;;;;18.77;3.03;;;6.80;99.90;;;;;;6272990;22;20351;-77
2022/04/05 00:59:44;;;;;;;11.68;3.47;;;6.80;99.90;;;;;;6273108;22;20024;-77
2022/04/05 01:02:18;;;;;;;19.10;3.00;;;6.90;99.90;;;;;;6273068;22;20055;-77
2022/04/05 01:04:45;;;;;;;16.80;2.58;;;6.80;99.90;;;;;;6273137;22;20059;-77
2022/04/05 01:07:30;;;;;;;18.77;4.15;;;6.90;99.90;;;;;;6273231;22;20486;-77
2022/04/05 01:09:58;;;;;;;32.60;4.68;;;6.90;99.90;;;;;;6248695;22;20031;-78
2022/04/05 01:12:24;;;;;;;21.90;3.88;;;6.80;99.90;;;;;;6275161;22;20016;-77
2022/04/05 01:14:52;;;;;;;22.10;4.55;;;6.80;99.90;;;;;;6249581;22;20031;-77
2022/04/05 01:17:18;;;;;;;32.10;3.92;;;6.80;99.90;;;;;;6273226;22;20019;-77
2022/04/05 01:19:46;;;;;;;22.63;4.22;;;6.80;99.90;;;;;;6274610;22;20030;-77
2022/04/05 01:22:13;;;;;;;22.90;3.72;;;6.80;99.90;;;;;;6272823;22;20073;-76
2022/04/05 01:24:39;;;;;;;19.33;2.90;;;6.80;99.90;;;;;;6272646;22;20024;-77
2022/04/05 01:27:08;;;;;;;16.13;2.80;;;6.80;99.90;;;;;;6274778;22;20038;-77
2022/04/05 01:29:34;;;;;;;26.25;3.33;;;6.80;99.90;;;;;;6274609;22;20020;-77
2022/04/05 01:32:07;;;;;;;23.83;4.20;;;6.80;99.90;;;;;;6246955;22;20022;-77
2022/04/05 01:34:35;;;;;;;31.90;5.78;;;6.70;99.90;;;;;;6274728;22;20023;-76
2022/04/05 01:37:07;;;;;;;29.23;3.55;;;6.70;99.90;;;;;;6272742;22;20031;-77
2022/04/05 01:39:35;;;;;;;27.70;3.72;;;6.70;99.90;;;;;;6272562;22;20028;-77
2022/04/05 01:42:14;;;;;;;32.42;4.55;;;6.70;99.90;;;;;;6272716;22;20022;-77
2022/04/05 01:44:47;;;;;;;22.10;3.50;;;6.70;99.90;;;;;;6273144;22;20031;-77
2022/04/05 01:47:15;;;;;;;32.13;5.78;;;6.70;99.90;;;;;;6247458;22;20112;-76
2022/04/05 01:49:43;;;;;;;37.75;5.47;;;6.70;99.90;;;;;;6273005;22;20024;-76
2022/04/05 01:52:10;;;;;;;37.40;4.97;;;6.70;99.90;;;;;;6273143;22;20085;-76
2022/04/05 01:54:45;;;;;;;40.58;6.32;;;6.70;99.90;;;;;;6273548;22;20335;-75
2022/04/05 01:57:12;;;;;;;24.08;4.03;;;6.70;99.90;;;;;;6247534;22;20073;-76
2022/04/05 01:59:40;;;;;;;29.60;4.88;;;6.70;99.90;;;;;;6272921;22;20023;-75
2022/04/05 02:02:08;;;;;;;35.85;4.85;;;6.70;99.90;;;;;;6248166;22;20035;-76
2022/04/05 02:04:34;;;;;;;42.88;7.32;;;6.70;99.90;;;;;;6278046;22;20348;-77
2022/04/05 02:07:02;;;;;;;21.90;4.10;;;6.70;99.90;;;;;;6274346;22;20031;-77
2022/04/05 02:09:29;;;;;;;27.42;3.65;;;6.70;99.90;;;;;;6247252;22;20030;-75
2022/04/05 02:11:58;;;;;;;25.88;3.35;;;6.70;99.90;;;;;;6272491;22;20070;-77
2022/04/05 02:14:25;;;;;;;20.77;3.10;;;6.70;99.90;;;;;;6247428;22;20070;-77
2022/04/05 02:16:50;;;;;;;28.48;3.60;;;6.70;99.90;;;;;;6246843;22;20020;-77
2022/04/05 02:19:17;;;;;;;23.58;4.72;;;6.70;99.90;;;;;;6272874;22;20036;-76
2022/04/05 02:21:45;;;;;;;22.17;4.40;;;6.70;99.90;;;;;;6274475;22;20058;-77
2022/04/05 02:24:11;;;;;;;22.50;3.45;;;6.70;99.90;;;;;;6272384;22;20023;-76
2022/04/05 02:26:40;;;;;;;32.30;6.28;;;6.70;99.90;;;;;;6273853;22;20447;-76
2022/04/05 02:29:08;;;;;;;27.40;3.45;;;6.70;99.90;;;;;;6247298;22;20024;-76
2022/04/05 02:31:33;;;;;;;25.73;4.32;;;6.70;99.90;;;;;;6271904;22;20094;-76
2022/04/05 02:34:00;;;;;;;17.65;2.83;;;6.70;99.90;;;;;;6272546;22;20081;-77
2022/04/05 02:36:29;;;;;;;29.98;4.45;;;6.70;99.90;;;;;;6272328;22;20026;-77
2022/04/05 02:39:00;;;;;;;26.08;6.30;;;6.70;99.90;;;;;;6272052;22;20479;-77
2022/04/05 02:41:31;;;;;;;23.13;3.67;;;6.70;99.90;;;;;;6272724;22;20015;-75
2022/04/05 02:43:58;;;;;;;21.67;3.30;;;6.60;99.90;;;;;;6272325;22;20024;-75
2022/04/05 02:46:25;;;;;;;21.52;2.90;;;6.70;99.90;;;;;;6272339;22;20084;-76
2022/04/05 02:48:59;;;;;;;21.35;3.83;;;6.60;99.90;;;;;;6272142;22;20062;-77
2022/04/05 02:51:27;;;;;;;16.52;2.35;;;6.70;99.90;;;;;;6269858;22;20027;-77
2022/04/05 02:53:52;;;;;;;14.30;2.85;;;6.60;99.90;;;;;;6274228;22;20673;-78
2022/04/05 02:56:18;;;;;;;19.08;3.22;;;6.70;99.90;;;;;;6276583;22;20024;-75
2022/04/05 02:58:48;;;;;;;17.90;3.58;;;6.60;99.90;;;;;;6274055;22;20027;-75
2022/04/05 03:01:15;;;;;;;25.50;3.47;;;6.60;99.90;;;;;;6246733;22;20026;-77
2022/04/05 03:03:42;;;;;;;29.00;4.38;;;6.60;99.90;;;;;;6249176;22;20023;-75
2022/04/05 03:06:14;;;;;;;25.00;3.70;;;6.60;99.90;;;;;;6247354;22;20050;-76
2022/04/05 03:08:40;;;;;;;20.27;3.30;;;6.70;99.90;;;;;;6222409;22;20482;-75
2022/04/05 03:11:06;;;;;;;24.55;2.97;;;6.70;99.90;;;;;;6274158;22;20051;-76
2022/04/05 03:13:32;;;;;;;19.20;2.85;;;6.60;99.90;;;;;;6272085;22;20031;-77
2022/04/05 03:15:58;;;;;;;24.92;2.88;;;6.70;99.90;;;;;;6272420;22;20566;-76
2022/04/05 03:18:28;;;;;;;22.70;2.90;;;6.70;99.90;;;;;;6274158;22;20443;-76
2022/04/05 03:20:55;;;;;;;21.48;4.05;;;6.70;99.90;;;;;;6248734;22;20030;-76
2022/04/05 03:23:23;;;;;;;14.80;3.03;;;6.60;99.90;;;;;;6273884;22;20460;-77
2022/04/05 03:25:54;;;;;;;20.33;2.58;;;6.70;99.90;;;;;;6273966;22;20413;-78
2022/04/05 03:28:20;;;;;;;17.90;4.38;;;6.70;99.90;;;;;;6249402;22;20402;-77
2022/04/05 03:30:47;;;;;;;22.60;3.50;;;6.70;99.90;;;;;;6273950;22;20153;-77
2022/04/05 03:33:38;;;;;;;30.73;3.35;;;6.70;99.90;;;;;;6254052;22;20073;-75
2022/04/05 03:36:05;;;;;;;20.65;3.22;;;6.70;99.90;;;;;;6248438;22;20430;-76
2022/04/05 03:38:31;;;;;;;17.33;2.63;;;6.60;99.90;;;;;;6246880;22;20110;-75
2022/04/05 03:40:57;;;;;;;16.00;3.95;;;6.70;99.90;;;;;;6248073;22;20482;-76
2022/04/05 03:43:23;;;;;;;16.08;2.55;;;6.60;99.90;;;;;;6248777;22;20030;-77
2022/04/05 03:45:49;;;;;;;21.10;3.20;;;6.60;99.90;;;;;;6250682;22;20019;-78
2022/04/05 03:48:15;;;;;;;18.73;3.25;;;6.60;99.90;;;;;;6252139;22;20030;-76
2022/04/05 03:50:44;;;;;;;23.92;4.03;;;6.60;99.90;;;;;;6249453;22;20019;-76
2022/04/05 03:53:11;;;;;;;31.35;3.83;;;6.60;99.90;;;;;;6222529;22;20073;-77
2022/04/05 03:55:36;;;;;;;36.70;4.13;;;6.60;99.90;;;;;;6248194;22;20084;-76
2022/04/05 03:58:02;;;;;;;23.02;3.78;;;6.60;99.90;;;;;;6247036;22;20518;-76
2022/04/05 04:00:29;;;;;;;17.25;3.47;;;6.60;99.90;;;;;;6248626;22;20019;-77
2022/04/05 04:02:58;;;;;;;26.05;3.80;;;6.60;99.90;;;;;;6248472;22;20351;-76
2022/04/05 04:05:25;;;;;;;23.90;3.80;;;6.60;99.90;;;;;;6222757;22;20042;-77
2022/04/05 04:07:52;;;;;;;20.52;3.50;;;6.60;99.90;;;;;;6247762;22;20081;-76
2022/04/05 04:10:24;;;;;;;21.33;3.50;;;6.60;99.90;;;;;;6248017;22;20494;-76
2022/04/05 04:12:54;;;;;;;19.33;2.78;;;6.60;99.90;;;;;;6275403;22;20094;-76
2022/04/05 04:15:20;;;;;;;27.48;5.20;;;6.60;99.90;;;;;;6248366;22;20072;-76
2022/04/05 04:17:49;;;;;;;15.93;2.28;;;6.60;99.90;;;;;;6222722;22;20024;-76
2022/04/05 04:20:14;;;;;;;28.38;3.70;;;6.60;99.90;;;;;;6247172;22;20072;-76
2022/04/05 04:22:40;;;;;;;17.67;3.88;;;6.60;99.90;;;;;;6220689;22;20020;-75
2022/04/05 04:25:09;;;;;;;16.27;2.58;;;6.50;99.90;;;;;;6197218;22;20039;-75
2022/04/05 04:27:36;;;;;;;29.25;3.85;;;6.60;99.90;;;;;;6245438;22;20521;-76
2022/04/05 04:30:09;;;;;;;30.25;4.82;;;6.60;99.90;;;;;;6275457;22;20023;-75
2022/04/05 04:32:35;;;;;;;34.13;4.88;;;6.60;99.90;;;;;;6290770;22;20045;-76
2022/04/05 04:35:01;;;;;;;22.58;3.17;;;6.60;99.90;;;;;;6336250;22;20406;-76
2022/04/05 04:37:34;;;;;;;22.92;3.13;;;6.60;99.90;;;;;;6313120;22;20510;-76
2022/04/05 04:40:07;;;;;;;28.67;4.60;;;6.60;99.90;;;;;;6286032;22;20106;-75
2022/04/05 04:42:33;;;;;;;25.52;3.25;;;6.60;99.90;;;;;;6257874;22;20113;-75
2022/04/05 04:45:01;;;;;;;18.20;2.75;;;6.60;99.90;;;;;;6337296;22;20033;-75
2022/04/05 04:47:27;;;;;;;22.42;3.63;;;6.60;99.90;;;;;;6308993;22;20023;-75
2022/04/05 04:49:52;;;;;;;25.27;4.13;;;6.60;99.90;;;;;;6308883;22;20023;-75
2022/04/05 04:52:18;;;;;;;22.25;3.97;;;6.60;99.90;;;;;;6308686;22;20023;-76
2022/04/05 04:54:47;;;;;;;22.55;3.45;;;6.60;99.90;;;;;;6309154;22;20026;-75
2022/04/05 04:57:17;;;;;;;23.30;3.70;;;6.60;99.90;;;;;;6257736;22;20023;-75
2022/04/05 04:59:46;;;;;;;18.98;2.80;;;6.60;99.90;;;;;;6283940;22;20466;-76
2022/04/05 05:02:11;;;;;;;19.98;3.28;;;6.60;99.90;;;;;;6309026;22;20054;-75
2022/04/05 05:04:37;;;;;;;26.00;3.30;;;6.60;99.90;;;;;;6283282;22;20027;-75
2022/04/05 05:07:04;;;;;;;30.05;5.65;;;6.60;99.90;;;;;;6309377;22;20018;-75
2022/04/05 05:09:29;;;;;;;13.63;3.47;;;6.60;99.90;;;;;;6308971;22;20058;-76
2022/04/05 05:11:55;;;;;;;17.95;3.63;;;6.60;99.90;;;;;;6309031;22;20014;-76
2022/04/05 05:14:23;;;;;;;23.20;4.05;;;6.60;99.90;;;;;;6309267;22;20041;-76
2022/04/05 05:16:57;;;;;;;28.60;3.75;;;6.60;99.90;;;;;;6360062;22;20027;-76
2022/04/05 05:19:27;;;;;;;19.35;3.50;;;6.60;99.90;;;;;;6337469;22;20029;-76
2022/04/05 05:22:00;;;;;;;33.78;3.88;;;6.60;99.90;;;;;;6285977;22;20085;-76
2022/04/05 05:25:06;;;;;;;19.30;2.53;;;6.60;99.90;;;;;;6255633;22;20531;-76
2022/04/05 05:27:32;;;;;;;13.63;3.08;;;6.60;99.90;;;;;;6247702;22;20415;-76
2022/04/05 05:29:57;;;;;;;25.85;3.22;;;6.70;99.90;;;;;;6222210;22;20020;-76
2022/04/05 05:32:23;;;;;;;12.73;2.80;;;6.70;99.90;;;;;;6271569;22;20102;-76
2022/04/05 05:35:06;;;;;;;20.55;3.58;;;6.70;99.90;;;;;;6245984;22;20020;-76
2022/04/05 05:37:32;;;;;;;20.85;3.65;;;6.70;99.90;;;;;;6245972;22;20038;-77
2022/04/05 05:39:57;;;;;;;19.70;2.88;;;6.70;99.90;;;;;;6244035;22;20027;-76
2022/04/05 05:42:24;;;;;;;27.58;3.83;;;6.70;99.90;;;;;;6220787;22;20051;-77
2022/04/05 05:44:50;;;;;;;21.17;3.53;;;6.70;99.90;;;;;;6245673;22;20023;-77
2022/04/05 05:47:16;;;;;;;35.08;4.03;;;6.80;99.90;;;;;;6245880;22;20022;-76
2022/04/05 05:49:46;;;;;;;33.92;4.35;;;6.70;99.90;;;;;;6245192;22;20027;-76
2022/04/05 05:52:11;;;;;;;23.88;3.67;;;6.70;99.90;;;;;;6195313;22;20024;-77
2022/04/05 05:54:37;;;;;;;25.38;4.32;;;6.70;99.90;;;;;;6247873;22;20034;-76
2022/04/05 05:57:04;;;;;;;27.92;4.53;;;6.70;99.90;;;;;;6360939;22;20022;-76
2022/04/05 05:59:31;;;;;;;31.20;3.92;;;6.70;99.90;;;;;;6282585;22;20019;-76
2022/04/05 06:02:00;;;;;;;26.48;3.47;;;6.80;99.90;;;;;;6308037;22;20484;-76
2022/04/05 06:04:26;;;;;;;23.60;4.20;;;6.80;99.90;;;;;;6308709;22;20478;-76
2022/04/05 06:06:52;;;;;;;21.25;3.50;;;6.80;99.90;;;;;;6336697;22;20025;-76
2022/04/05 06:09:18;;;;;;;14.68;2.53;;;6.70;99.90;;;;;;6309191;22;20093;-76
2022/04/05 06:12:05;;;;;;;14.82;2.60;;;6.70;99.90;;;;;;6336933;22;20068;-76
2022/04/05 06:14:31;;;;;;;13.43;2.10;;;6.70;99.90;;;;;;6282121;22;20023;-76
2022/04/05 06:16:58;;;;;;;17.83;2.42;;;6.80;99.90;;;;;;6282567;22;20084;-76
2022/04/05 06:19:29;;;;;;;18.05;2.00;;;6.70;99.90;;;;;;6282836;22;20404;-76
2022/04/05 06:21:56;;;;;;;18.13;3.03;;;6.70;99.90;;;;;;6308539;22;20023;-77
2022/04/05 06:24:23;;;;;;;16.10;2.13;;;6.80;99.90;;;;;;6336738;22;20023;-77
2022/04/05 06:26:52;;;;;;;26.52;4.85;;;6.80;99.90;;;;;;6360479;22;20022;-77
2022/04/05 06:29:18;;;;;;;17.48;2.78;;;6.80;99.90;;;;;;6308493;22;20046;-76
2022/04/05 06:31:44;;;;;;;34.90;5.13;;;6.90;99.90;;;;;;6282535;22;20096;-76
2022/04/05 06:34:15;;;;;;;23.25;3.03;;;6.90;99.90;;;;;;6336487;22;20027;-77
2022/04/05 06:36:40;;;;;;;22.30;3.63;;;7.00;99.90;;;;;;6336370;22;20021;-76
2022/04/05 06:39:07;;;;;;;25.67;4.85;;;7.00;99.90;;;;;;6334440;22;20102;-76
2022/04/05 06:41:33;;;;;;;24.10;3.85;;;7.10;99.90;;;;;;6336443;22;20022;-78
2022/04/05 06:44:06;;;;;;;27.20;4.53;;;7.20;99.90;;;;;;6336680;22;20370;-76
2022/04/05 06:46:32;;;;;;;27.05;4.15;;;7.30;99.90;;;;;;6334615;22;20026;-77
2022/04/05 06:48:59;;;;;;;29.52;3.65;;;7.30;99.90;;;;;;6308685;22;20033;-77
2022/04/05 06:51:26;;;;;;;23.15;4.45;;;7.40;99.90;;;;;;6309061;22;20347;-76
2022/04/05 06:53:52;;;;;;;23.45;4.45;;;7.40;99.90;;;;;;6340169;22;20030;-76
2022/04/05 06:56:21;;;;;;;28.85;4.10;;;7.30;99.90;;;;;;6309839;22;20054;-76
2022/04/05 06:58:59;;;;;;;19.88;3.55;;;7.40;99.90;;;;;;6286020;22;20029;-77
2022/04/05 07:01:26;;;;;;;;;;;7.30;99.90;;;;;;6310952;22;20524;-76
2022/04/05 07:03:55;;;;;;;27.58;4.15;;;7.40;99.90;;;;;;6259815;22;20370;-76
2022/04/05 07:06:21;;;;;;;21.15;3.95;;;7.30;99.90;;;;;;6287388;22;20079;-77
2022/04/05 07:08:49;;;;;;;39.65;5.93;;;7.30;99.90;;;;;;6339939;22;20019;-79
2022/04/05 07:11:16;;;;;;;30.08;5.03;;;7.30;99.90;;;;;;6311232;22;20019;-77
2022/04/05 07:13:41;;;;;;;21.73;3.97;;;7.30;99.90;;;;;;6361627;22;20041;-77
2022/04/05 07:16:07;;;;;;;35.20;4.22;;;7.30;99.90;;;;;;6310286;22;20450;-76
2022/04/05 07:18:34;;;;;;;34.63;3.97;;;7.30;99.90;;;;;;6283769;22;20408;-76
2022/04/05 07:21:02;;;;;;;25.83;3.95;;;7.30;99.90;;;;;;6310093;22;20027;-76
2022/04/05 07:23:28;;;;;;;17.30;3.22;;;7.30;99.90;;;;;;6310149;22;20022;-75
2022/04/05 07:25:55;;;;;;;20.48;3.55;;;7.30;99.90;;;;;;6337656;22;20446;-75
2022/04/05 07:28:24;;;;;;;20.60;3.10;;;7.30;99.90;;;;;;6337917;22;20347;-75
2022/04/05 07:30:50;;;;;;;16.83;3.13;;;7.20;99.90;;;;;;6310209;22;20019;-75
2022/04/05 07:33:16;;;;;;;15.43;2.90;;;7.30;99.90;;;;;;6300629;22;20028;-75
2022/04/05 07:35:41;;;;;;;15.55;3.42;;;7.30;99.90;;;;;;6273904;22;20020;-75
2022/04/05 07:38:07;;;;;;;12.23;2.45;;;7.30;99.90;;;;;;6273703;22;20024;-75
2022/04/05 07:40:49;;;;;;;11.15;1.67;;;7.30;99.90;;;;;;6276102;22;20055;-75
2022/04/05 07:43:38;;;;;;;11.65;1.63;;;7.40;99.90;;;;;;6249098;22;20102;-76
2022/04/05 07:46:04;;;;;;;9.95;2.95;;;7.40;99.90;;;;;;6274280;22;20522;-76
2022/04/05 07:48:31;;;;;;;11.98;1.88;;;7.40;99.90;;;;;;6274244;22;20020;-75
2022/04/05 07:51:24;;;;;;;15.75;2.28;;;7.50;99.90;;;;;;6273584;22;20077;-76
2022/04/05 07:53:56;;;;;;;18.15;3.58;;;7.50;99.90;;;;;;6247526;22;20464;-76
2022/04/05 07:56:24;;;;;;;14.35;3.65;;;7.60;99.90;;;;;;6248709;22;20019;-76
2022/04/05 07:58:50;;;;;;;20.30;2.50;;;7.60;99.90;;;;;;6273692;22;20032;-76
2022/04/05 08:01:16;;;;;;;17.08;2.88;;;7.70;99.90;;;;;;6273905;22;20465;-75
2022/04/05 08:03:42;;;;;;;23.42;4.32;;;7.70;99.90;;;;;;6274524;22;20025;-76
2022/04/05 08:06:12;;;;;;;10.38;1.55;;;7.70;99.90;;;;;;6249438;22;20051;-76
2022/04/05 08:08:42;;;;;;;11.73;2.10;;;7.60;99.90;;;;;;6225708;22;20024;-75
2022/04/05 08:11:08;;;;;;;6.72;1.85;;;7.60;99.90;;;;;;6247969;22;20459;-75
2022/04/05 08:13:34;;;;;;;15.40;1.73;;;7.60;99.90;;;;;;6275249;22;20024;-76
2022/04/05 08:16:01;;;;;;;10.27;2.15;;;7.60;99.90;;;;;;6248129;22;20016;-76
2022/04/05 08:18:27;;;;;;;10.57;1.98;;;7.60;99.90;;;;;;6273407;22;20351;-75
2022/04/05 08:20:56;;;;;;;23.52;4.28;;;7.60;99.90;;;;;;6275635;22;20027;-76
2022/04/05 08:23:24;;;;;;;9.55;1.95;;;7.70;99.90;;;;;;6273542;22;20023;-76
2022/04/05 08:26:01;;;;;;;12.05;1.30;;;7.70;99.90;;;;;;6273357;22;20066;-77
2022/04/05 08:28:28;;;;;;;10.27;1.25;;;7.70;99.90;;;;;;6222572;22;20035;-76
2022/04/05 08:30:54;;;;;;;9.88;2.05;;;7.70;99.90;;;;;;6248315;22;20083;-76
2022/04/05 08:33:23;;;;;;;9.05;1.48;;;7.70;99.90;;;;;;6273357;22;20103;-76
2022/04/05 08:35:49;;;;;;;7.95;1.60;;;7.80;99.90;;;;;;6273346;22;20027;-76
2022/04/05 08:38:15;;;;;;;12.20;1.70;;;7.80;99.90;;;;;;6275151;22;20031;-75
2022/04/05 08:40:42;;;;;;;13.30;2.72;;;7.80;99.90;;;;;;6248284;22;20088;-75
2022/04/05 08:43:08;;;;;;;20.33;2.47;;;7.80;99.90;;;;;;6248143;22;20085;-76
2022/04/05 08:45:35;;;;;;;11.00;1.50;;;7.80;99.90;;;;;;6275598;22;20534;-76
2022/04/05 08:48:01;;;;;;;13.90;2.67;;;7.80;99.90;;;;;;6247996;22;20023;-76
2022/04/05 08:50:32;;;;;;;12.10;1.95;;;7.80;99.90;;;;;;6273663;22;20055;-76
2022/04/05 08:53:01;;;;;;;12.07;3.17;;;7.80;99.90;;;;;;6274068;22;20016;-76
2022/04/05 08:55:30;;;;;;;11.30;1.80;;;7.90;99.90;;;;;;6274202;22;20039;-77
2022/04/05 08:57:58;;;;;;;14.52;2.20;;;7.90;99.90;;;;;;6247347;22;20023;-75
2022/04/05 09:00:24;;;;;;;10.13;2.40;;;7.90;99.90;;;;;;6247674;22;20077;-77
2022/04/05 09:02:59;;;;;;;13.10;1.80;;;7.90;99.90;;;;;;6273266;22;20051;-77
2022/04/05 09:05:43;;;;;;;18.50;2.35;;;7.90;99.90;;;;;;6272991;22;20027;-77
2022/04/05 09:08:29;;;;;;;14.43;2.40;;;7.90;99.90;;;;;;6271355;22;20386;-76
2022/04/05 09:11:20;;;;;;;15.00;1.90;;;7.90;99.90;;;;;;6274916;22;20023;-77
2022/04/05 09:13:59;;;;;;;14.65;3.15;;;8.00;99.90;;;;;;6273446;22;20020;-76
2022/04/05 09:16:31;;;;;;;17.20;1.77;;;8.10;99.90;;;;;;6273368;22;20059;-76
2022/04/05 09:18:59;;;;;;;13.07;1.67;;;8.20;99.90;;;;;;6273060;22;20031;-76
2022/04/05 09:21:57;;;;;;;12.65;2.00;;;8.30;99.90;;;;;;6273401;22;20027;-75
2022/04/05 09:24:33;;;;;;;13.75;2.28;;;8.30;99.90;;;;;;6272384;22;20016;-75
2022/04/05 09:26:59;;;;;;;10.20;1.48;;;8.30;99.90;;;;;;6274267;22;20451;-76
2022/04/05 09:29:37;;;;;;;6.20;1.40;;;8.20;99.90;;;;;;6272305;22;20027;-76
2022/04/05 09:32:03;;;;;;;9.18;1.30;;;8.00;99.90;;;;;;6272521;22;20027;-76
2022/04/05 09:34:30;;;;;;;7.75;1.42;;;8.00;99.90;;;;;;6274767;22;20076;-76
2022/04/05 09:37:14;;;;;;;5.90;1.20;;;8.00;99.90;;;;;;6274159;22;20387;-76
2022/04/05 09:39:41;;;;;;;11.05;1.30;;;7.90;99.90;;;;;;6271792;22;20085;-76
2022/04/05 09:42:09;;;;;;;6.10;1.23;;;8.00;99.90;;;;;;6272172;22;20024;-77
2022/04/05 09:44:38;;;;;;;10.00;1.48;;;8.00;99.90;;;;;;6274282;22;20032;-76
2022/04/05 09:47:18;;;;;;;7.88;1.40;;;8.00;99.90;;;;;;6272913;22;20051;-76
2022/04/05 09:49:47;;;;;;;8.25;1.52;;;8.10;99.90;;;;;;6272686;22;20049;-76
2022/04/05 09:52:28;;;;;;;5.25;1.88;;;8.00;99.90;;;;;;6272942;22;20028;-76
2022/04/05 09:55:08;;;;;;;12.45;1.20;;;8.10;99.90;;;;;;6273083;22;20031;-76
2022/04/05 09:57:37;;;;;;;11.05;1.88;;;8.10;99.90;;;;;;6251849;22;20099;-77
2022/04/05 10:00:16;;;;;;;12.73;1.45;;;8.20;99.90;;;;;;6224153;22;20103;-76
2022/04/05 10:03:05;;;;;;;12.05;1.65;;;8.30;99.90;;;;;;6272696;22;20046;-76
2022/04/05 10:05:32;;;;;;;10.63;1.65;;;8.40;99.90;;;;;;6272586;22;20055;-76
2022/04/05 10:07:59;;;;;;;12.93;1.83;;;8.40;99.90;;;;;;6246697;22;20024;-76
2022/04/05 10:10:37;;;;;;;8.48;1.52;;;8.60;99.90;;;;;;6272640;22;20452;-76
2022/04/05 10:13:05;;;;;;;12.43;1.67;;;8.60;99.90;;;;;;6272352;22;20024;-77
2022/04/05 10:15:31;;;;;;;15.10;1.85;;;8.60;99.90;;;;;;6247054;22;20020;-76
2022/04/05 10:17:59;;;;;;;9.60;1.33;;;8.50;99.90;;;;;;6272414;22;20032;-75
2022/04/05 10:20:34;;;;;;;14.07;2.58;;;8.50;99.90;;;;;;6274502;22;20034;-76
2022/04/05 10:23:04;;;;;;;8.52;1.50;;;8.50;99.90;;;;;;6271828;22;20016;-76
2022/04/05 10:25:32;;;;;;;9.32;1.30;;;8.60;99.90;;;;;;6246695;22;20024;-76
2022/04/05 10:27:59;;;;;;;12.65;1.20;;;8.50;99.90;;;;;;6246789;22;20414;-76
2022/04/05 10:30:35;;;;;;;7.82;1.60;;;8.50;99.90;;;;;;6274491;22;20470;-75
2022/04/05 10:33:18;;;;;;;7.75;1.23;;;8.60;99.90;;;;;;6272683;22;20026;-75
2022/04/05 10:35:53;;;;;;;8.70;2.20;;;8.70;99.90;;;;;;6273936;22;20019;-76
2022/04/05 10:38:24;;;;;;;9.20;1.63;;;8.60;99.90;;;;;;6272504;22;20546;-76
2022/04/05 10:41:16;;;;;;;13.05;3.03;;;8.60;99.90;;;;;;6247391;22;20106;-76
2022/04/05 10:43:46;;;;;;;13.80;1.52;;;8.60;99.90;;;;;;6273016;22;20074;-76
2022/04/05 10:46:41;;;;;;;12.13;1.30;;;8.60;99.90;;;;;;6275341;22;20478;-75
2022/04/05 10:49:09;;;;;;;15.98;2.60;;;8.60;99.90;;;;;;6260713;22;20024;-75
2022/04/05 10:52:32;;;;;;;8.85;2.03;;;8.60;99.90;;;;;;6196766;22;20034;-77
2022/04/05 10:55:04;;;;;;;6.38;1.60;;;8.60;99.90;;;;;;6156373;23;20028;-76
2022/04/05 10:57:34;;;;;;;8.85;1.77;;;8.60;99.90;;;;;;6156486;23;20021;-76
2022/04/05 11:00:23;;;;;;;7.68;2.38;;;8.60;99.90;;;;;;6156543;23;20107;-76
2022/04/05 11:03:00;;;;;;;17.05;2.95;;;8.80;99.90;;;;;;6155143;23;20017;-77
2022/04/05 11:05:35;;;;;;;11.85;2.05;;;8.80;99.90;;;;;;6155073;23;20196;-77
2022/04/05 11:08:22;;;;;;;11.73;1.95;;;8.90;99.90;;;;;;6180110;23;20075;-76
2022/04/05 11:10:51;;;;;;;9.55;1.40;;;9.00;99.90;;;;;;6130312;23;20032;-76
2022/04/05 11:13:29;;;;;;;10.80;1.48;;;9.20;99.90;;;;;;6130459;23;20674;-76
2022/04/05 11:15:58;;;;;;;9.57;1.67;;;9.10;99.90;;;;;;6155018;23;20036;-76
2022/04/05 11:18:28;;;;;;;10.70;1.85;;;9.20;99.90;;;;;;6155451;23;20033;-76
2022/04/05 11:20:56;;;;;;;15.60;2.15;;;9.00;99.90;;;;;;6180247;23;20389;-76
2022/04/05 11:23:47;;;;;;;15.43;1.92;;;9.00;99.90;;;;;;6154963;23;20461;-76
2022/04/05 11:26:25;;;;;;;9.35;1.98;;;9.00;99.90;;;;;;6155426;23;20017;-76
2022/04/05 11:28:58;;;;;;;14.98;2.25;;;9.10;99.90;;;;;;6209015;22;20024;-77
2022/04/05 11:31:33;;;;;;;20.70;4.38;;;9.00;99.90;;;;;;6277747;22;20455;-77
2022/04/05 11:33:59;;;;;;;15.48;3.70;;;9.20;99.90;;;;;;6252124;22;20098;-77
2022/04/05 11:36:28;;;;;;;12.43;2.72;;;9.30;99.90;;;;;;6277571;22;20020;-77
2022/04/05 11:38:59;;;;;;;13.80;2.17;;;9.50;99.90;;;;;;6278642;22;20347;-77
2022/04/05 11:41:32;;;;;;;15.05;3.08;;;9.40;99.90;;;;;;6305452;22;20447;-75
2022/04/05 11:44:02;;;;;;;16.17;2.78;;;9.50;99.90;;;;;;6279073;22;20031;-75
2022/04/05 11:46:37;;;;;;;14.80;2.60;;;9.40;99.90;;;;;;6279008;22;20038;-76
2022/04/05 11:49:06;;;;;;;8.77;2.67;;;9.40;99.90;;;;;;6279428;22;20027;-77
2022/04/05 11:51:35;;;;;;;10.43;2.00;;;9.40;99.90;;;;;;6306671;22;20023;-76
2022/04/05 11:54:21;;;;;;;13.05;2.20;;;9.40;99.90;;;;;;6305271;22;20030;-77
2022/04/05 11:56:47;;;;;;;10.23;2.47;;;9.40;99.90;;;;;;6305549;22;20397;-76
2022/04/05 11:59:18;;;;;;;8.38;2.08;;;9.40;99.90;;;;;;6306832;22;20343;-76
2022/04/05 12:01:49;;;;;;;8.93;2.50;;;9.40;99.90;;;;;;6306545;22;20023;-77
2022/04/05 12:04:18;;;;;;;13.88;2.13;;;9.40;99.90;;;;;;6306630;22;20052;-77
2022/04/05 12:06:45;;;;;;;18.40;3.72;;;9.50;99.90;;;;;;6278980;22;20098;-77
2022/04/05 12:09:13;;;;;;;11.93;2.95;;;9.60;99.90;;;;;;6305048;22;20081;-77
2022/04/05 12:11:42;;;;;;;7.47;2.67;;;9.60;99.90;;;;;;6306196;22;20033;-77
2022/04/05 12:14:10;;;;;;;8.18;2.22;;;9.70;99.90;;;;;;6278436;22;20019;-76
2022/04/05 12:17:08;;;;;;;8.27;2.03;;;9.80;99.90;;;;;;6278469;22;20026;-76
2022/04/05 12:19:36;;;;;;;13.43;2.53;;;9.80;99.90;;;;;;6303899;22;20019;-76
2022/04/05 12:22:09;;;;;;;10.30;2.40;;;9.80;99.90;;;;;;6304362;22;20019;-76
2022/04/05 12:24:53;;;;;;;10.93;2.60;;;9.90;99.90;;;;;;6278612;22;20027;-76
2022/04/05 12:27:21;;;;;;;7.50;2.40;;;9.90;99.90;;;;;;6280069;22;20102;-76
2022/04/05 12:29:49;;;;;;;15.20;2.83;;;9.90;99.90;;;;;;6305924;22;20023;-76
2022/04/05 12:32:15;;;;;;;13.45;2.40;;;9.90;99.90;;;;;;6281216;22;20027;-77
2022/04/05 12:34:42;;;;;;;11.50;2.53;;;9.80;99.90;;;;;;6308894;22;20801;-77
2022/04/05 12:37:14;;;;;;;14.05;2.40;;;9.80;99.90;;;;;;6309594;22;20054;-77
2022/04/05 12:39:50;;;;;;;11.95;2.42;;;9.80;99.90;;;;;;6260205;22;20026;-77
2022/04/05 12:42:17;;;;;;;13.27;2.30;;;9.70;99.90;;;;;;6258130;22;20019;-77
2022/04/05 12:44:47;;;;;;;8.90;2.50;;;9.60;99.90;;;;;;6309372;22;20026;-77
2022/04/05 12:47:21;;;;;;;10.70;2.70;;;9.50;99.90;;;;;;6284385;22;20026;-77
2022/04/05 12:49:52;;;;;;;7.35;1.80;;;9.60;99.90;;;;;;6337131;22;20072;-77
2022/04/05 12:52:19;;;;;;;8.00;2.38;;;9.50;99.90;;;;;;6308993;22;20027;-76
2022/04/05 12:54:58;;;;;;;10.20;2.58;;;9.30;99.90;;;;;;6336825;22;20023;-77
2022/04/05 12:57:24;;;;;;;8.48;2.03;;;9.20;99.90;;;;;;6309927;22;20138;-77
2022/04/05 13:00:12;;;;;;;8.18;1.92;;;9.20;99.90;;;;;;6309344;22;20510;-77
2022/04/05 13:02:43;;;;;;;;;;;9.20;99.90;;;;;;6309938;22;20015;-76
2022/04/05 13:08:15;;;;;;;10.27;3.38;;;9.10;99.90;;;;;;6336818;22;20057;-76